sensor_id;sensor_type;location;lat;lon;timestamp;P1;durP1;ratioP1;P2;durP2;ratioP2
10461;SDS011;5278;42.656;23.374;2023-07-29T00:01:40;3.90;;;2.67;;
10461;SDS011;5278;42.656;23.374;2023-07-29T00:04:07;3.23;;;2.83;;
10461;SDS011;5278;42.656;23.374;2023-07-29T00:06:34;4.27;;;3.37;;
10461;SDS011;5278;42.656;23.374;2023-07-29T00:09:01;5.43;;;3.70;;
10461;SDS011;5278;42.656;23.374;2023-07-29T00:11:29;2.97;;;2.67;;
10461;SDS011;5278;42.656;23.374;2023-07-29T00:13:59;4.27;;;3.17;;
10461;SDS011;5278;42.656;23.374;2023-07-29T00:16:26;4.87;;;3.13;;
10461;SDS011;5278;42.656;23.374;2023-07-29T00:18:53;4.13;;;3.10;;
10461;SDS011;5278;42.656;23.374;2023-07-29T00:21:20;3.43;;;3.13;;
10461;SDS011;5278;42.656;23.374;2023-07-29T00:23:47;4.37;;;3.27;;
10461;SDS011;5278;42.656;23.374;2023-07-29T00:26:14;3.93;;;3.13;;
10461;SDS011;5278;42.656;23.374;2023-07-29T00:28:42;5.07;;;3.20;;
10461;SDS011;5278;42.656;23.374;2023-07-29T00:31:10;4.70;;;3.17;;
10461;SDS011;5278;42.656;23.374;2023-07-29T00:33:37;6.53;;;3.37;;
10461;SDS011;5278;42.656;23.374;2023-07-29T00:36:04;5.97;;;2.83;;
10461;SDS011;5278;42.656;23.374;2023-07-29T00:38:31;3.60;;;3.30;;
10461;SDS011;5278;42.656;23.374;2023-07-29T00:40:59;4.47;;;3.30;;
10461;SDS011;5278;42.656;23.374;2023-07-29T00:43:30;4.10;;;3.60;;
10461;SDS011;5278;42.656;23.374;2023-07-29T00:45:56;4.13;;;3.73;;
10461;SDS011;5278;42.656;23.374;2023-07-29T00:48:25;5.97;;;3.50;;
10461;SDS011;5278;42.656;23.374;2023-07-29T00:50:52;4.23;;;3.27;;
10461;SDS011;5278;42.656;23.374;2023-07-29T00:53:19;3.13;;;2.57;;
10461;SDS011;5278;42.656;23.374;2023-07-29T00:55:46;2.73;;;2.53;;
10461;SDS011;5278;42.656;23.374;2023-07-29T00:58:13;3.27;;;2.97;;
10461;SDS011;5278;42.656;23.374;2023-07-29T01:00:40;3.57;;;3.00;;
10461;SDS011;5278;42.656;23.374;2023-07-29T01:03:08;3.10;;;2.80;;
10461;SDS011;5278;42.656;23.374;2023-07-29T01:05:40;3.83;;;2.80;;
10461;SDS011;5278;42.656;23.374;2023-07-29T01:08:19;4.27;;;3.23;;
10461;SDS011;5278;42.656;23.374;2023-07-29T01:10:55;3.53;;;3.20;;
10461;SDS011;5278;42.656;23.374;2023-07-29T01:13:29;3.27;;;2.73;;
10461;SDS011;5278;42.656;23.374;2023-07-29T01:16:04;2.63;;;2.43;;
10461;SDS011;5278;42.656;23.374;2023-07-29T01:18:36;3.17;;;2.87;;
10461;SDS011;5278;42.656;23.374;2023-07-29T01:21:07;2.80;;;2.60;;
10461;SDS011;5278;42.656;23.374;2023-07-29T01:23:37;4.37;;;2.60;;
10461;SDS011;5278;42.656;23.374;2023-07-29T01:26:04;3.13;;;2.83;;
10461;SDS011;5278;42.656;23.374;2023-07-29T01:28:31;2.80;;;2.60;;
10461;SDS011;5278;42.656;23.374;2023-07-29T01:31:01;2.77;;;2.40;;
10461;SDS011;5278;42.656;23.374;2023-07-29T01:33:35;2.97;;;2.70;;
10461;SDS011;5278;42.656;23.374;2023-07-29T01:36:07;3.50;;;2.70;;
10461;SDS011;5278;42.656;23.374;2023-07-29T01:38:40;3.57;;;2.80;;
10461;SDS011;5278;42.656;23.374;2023-07-29T01:41:08;2.73;;;2.47;;
10461;SDS011;5278;42.656;23.374;2023-07-29T01:43:36;3.00;;;2.47;;
10461;SDS011;5278;42.656;23.374;2023-07-29T01:46:09;4.40;;;2.80;;
10461;SDS011;5278;42.656;23.374;2023-07-29T01:48:36;3.87;;;2.77;;
10461;SDS011;5278;42.656;23.374;2023-07-29T01:51:03;2.87;;;2.67;;
10461;SDS011;5278;42.656;23.374;2023-07-29T01:53:29;3.40;;;3.10;;
10461;SDS011;5278;42.656;23.374;2023-07-29T01:55:58;3.27;;;2.97;;
10461;SDS011;5278;42.656;23.374;2023-07-29T01:58:25;3.60;;;2.50;;
10461;SDS011;5278;42.656;23.374;2023-07-29T02:00:52;4.17;;;3.03;;
10461;SDS011;5278;42.656;23.374;2023-07-29T02:03:19;4.57;;;3.10;;
10461;SDS011;5278;42.656;23.374;2023-07-29T02:05:46;3.43;;;3.00;;
10461;SDS011;5278;42.656;23.374;2023-07-29T02:08:13;2.83;;;2.63;;
10461;SDS011;5278;42.656;23.374;2023-07-29T02:10:40;3.90;;;3.03;;
10461;SDS011;5278;42.656;23.374;2023-07-29T02:13:11;4.17;;;2.80;;
10461;SDS011;5278;42.656;23.374;2023-07-29T02:15:38;3.00;;;2.70;;
10461;SDS011;5278;42.656;23.374;2023-07-29T02:18:05;3.40;;;3.00;;
10461;SDS011;5278;42.656;23.374;2023-07-29T02:20:33;2.77;;;2.57;;
10461;SDS011;5278;42.656;23.374;2023-07-29T02:22:59;3.67;;;2.77;;
10461;SDS011;5278;42.656;23.374;2023-07-29T02:25:26;2.73;;;2.53;;
10461;SDS011;5278;42.656;23.374;2023-07-29T02:27:53;2.90;;;2.70;;
10461;SDS011;5278;42.656;23.374;2023-07-29T02:30:22;2.77;;;2.57;;
10461;SDS011;5278;42.656;23.374;2023-07-29T02:32:49;3.20;;;2.90;;
10461;SDS011;5278;42.656;23.374;2023-07-29T02:35:16;3.10;;;2.80;;
10461;SDS011;5278;42.656;23.374;2023-07-29T02:37:42;3.57;;;3.20;;
10461;SDS011;5278;42.656;23.374;2023-07-29T02:40:10;3.40;;;3.10;;
10461;SDS011;5278;42.656;23.374;2023-07-29T02:42:37;3.20;;;2.93;;
10461;SDS011;5278;42.656;23.374;2023-07-29T02:45:05;2.70;;;2.50;;
10461;SDS011;5278;42.656;23.374;2023-07-29T02:47:36;3.30;;;2.83;;
10461;SDS011;5278;42.656;23.374;2023-07-29T02:50:03;3.10;;;2.80;;
10461;SDS011;5278;42.656;23.374;2023-07-29T02:52:30;2.63;;;2.43;;
10461;SDS011;5278;42.656;23.374;2023-07-29T02:54:57;3.13;;;2.83;;
10461;SDS011;5278;42.656;23.374;2023-07-29T02:57:24;4.10;;;3.07;;
10461;SDS011;5278;42.656;23.374;2023-07-29T02:59:51;3.27;;;3.00;;
10461;SDS011;5278;42.656;23.374;2023-07-29T03:02:18;3.33;;;2.70;;
10461;SDS011;5278;42.656;23.374;2023-07-29T03:04:46;2.90;;;2.70;;
10461;SDS011;5278;42.656;23.374;2023-07-29T03:07:14;4.53;;;3.13;;
10461;SDS011;5278;42.656;23.374;2023-07-29T03:09:41;3.30;;;2.60;;
10461;SDS011;5278;42.656;23.374;2023-07-29T03:12:09;3.00;;;2.80;;
10461;SDS011;5278;42.656;23.374;2023-07-29T03:14:36;3.90;;;2.93;;
10461;SDS011;5278;42.656;23.374;2023-07-29T03:17:03;4.17;;;3.10;;
10461;SDS011;5278;42.656;23.374;2023-07-29T03:19:30;2.97;;;2.70;;
10461;SDS011;5278;42.656;23.374;2023-07-29T03:21:59;2.97;;;2.70;;
10461;SDS011;5278;42.656;23.374;2023-07-29T03:24:25;3.00;;;2.70;;
10461;SDS011;5278;42.656;23.374;2023-07-29T03:26:54;3.77;;;3.07;;
10461;SDS011;5278;42.656;23.374;2023-07-29T03:29:20;3.53;;;2.83;;
10461;SDS011;5278;42.656;23.374;2023-07-29T03:31:47;3.73;;;3.23;;
10461;SDS011;5278;42.656;23.374;2023-07-29T03:34:14;4.03;;;2.80;;
10461;SDS011;5278;42.656;23.374;2023-07-29T03:36:41;3.40;;;3.10;;
10461;SDS011;5278;42.656;23.374;2023-07-29T03:39:09;6.23;;;3.57;;
10461;SDS011;5278;42.656;23.374;2023-07-29T03:41:37;3.77;;;3.37;;
10461;SDS011;5278;42.656;23.374;2023-07-29T03:44:04;5.27;;;4.00;;
10461;SDS011;5278;42.656;23.374;2023-07-29T03:46:31;3.70;;;2.87;;
10461;SDS011;5278;42.656;23.374;2023-07-29T03:48:58;4.10;;;3.60;;
10461;SDS011;5278;42.656;23.374;2023-07-29T03:51:24;4.40;;;3.80;;
10461;SDS011;5278;42.656;23.374;2023-07-29T03:53:51;4.10;;;3.50;;
10461;SDS011;5278;42.656;23.374;2023-07-29T03:56:20;4.97;;;3.70;;
10461;SDS011;5278;42.656;23.374;2023-07-29T03:58:46;4.07;;;3.67;;
10461;SDS011;5278;42.656;23.374;2023-07-29T04:01:14;3.77;;;3.47;;
10461;SDS011;5278;42.656;23.374;2023-07-29T04:03:41;3.80;;;3.10;;
10461;SDS011;5278;42.656;23.374;2023-07-29T04:06:08;4.10;;;3.50;;
10461;SDS011;5278;42.656;23.374;2023-07-29T04:08:34;3.30;;;2.90;;
10461;SDS011;5278;42.656;23.374;2023-07-29T04:11:01;3.97;;;3.30;;
10461;SDS011;5278;42.656;23.374;2023-07-29T04:13:30;3.43;;;3.13;;
10461;SDS011;5278;42.656;23.374;2023-07-29T04:15:56;6.20;;;3.47;;
10461;SDS011;5278;42.656;23.374;2023-07-29T04:18:23;6.93;;;5.03;;
10461;SDS011;5278;42.656;23.374;2023-07-29T04:20:50;5.10;;;4.60;;
10461;SDS011;5278;42.656;23.374;2023-07-29T04:23:17;7.60;;;4.97;;
10461;SDS011;5278;42.656;23.374;2023-07-29T04:25:44;4.70;;;3.83;;
10461;SDS011;5278;42.656;23.374;2023-07-29T04:28:11;7.63;;;3.67;;
10461;SDS011;5278;42.656;23.374;2023-07-29T04:30:39;6.27;;;4.50;;
10461;SDS011;5278;42.656;23.374;2023-07-29T04:33:06;3.90;;;3.60;;
10461;SDS011;5278;42.656;23.374;2023-07-29T04:35:33;4.17;;;3.47;;
10461;SDS011;5278;42.656;23.374;2023-07-29T04:38:00;3.87;;;3.57;;
10461;SDS011;5278;42.656;23.374;2023-07-29T04:40:27;3.80;;;3.50;;
10461;SDS011;5278;42.656;23.374;2023-07-29T04:42:54;4.50;;;3.43;;
10461;SDS011;5278;42.656;23.374;2023-07-29T04:45:21;3.97;;;3.37;;
10461;SDS011;5278;42.656;23.374;2023-07-29T04:47:50;3.90;;;3.30;;
10461;SDS011;5278;42.656;23.374;2023-07-29T04:50:17;8.07;;;3.57;;
10461;SDS011;5278;42.656;23.374;2023-07-29T04:52:44;3.50;;;3.20;;
10461;SDS011;5278;42.656;23.374;2023-07-29T04:55:11;3.10;;;2.80;;
10461;SDS011;5278;42.656;23.374;2023-07-29T04:57:38;3.53;;;3.23;;
10461;SDS011;5278;42.656;23.374;2023-07-29T05:00:06;3.43;;;3.07;;
10461;SDS011;5278;42.656;23.374;2023-07-29T05:02:34;3.50;;;3.27;;
10461;SDS011;5278;42.656;23.374;2023-07-29T05:05:03;3.03;;;2.73;;
10461;SDS011;5278;42.656;23.374;2023-07-29T05:07:31;3.60;;;3.30;;
10461;SDS011;5278;42.656;23.374;2023-07-29T05:09:58;2.90;;;2.67;;
10461;SDS011;5278;42.656;23.374;2023-07-29T05:12:25;4.80;;;3.17;;
10461;SDS011;5278;42.656;23.374;2023-07-29T05:14:54;3.17;;;2.80;;
10461;SDS011;5278;42.656;23.374;2023-07-29T05:17:21;3.47;;;3.17;;
10461;SDS011;5278;42.656;23.374;2023-07-29T05:19:48;8.00;;;5.50;;
10461;SDS011;5278;42.656;23.374;2023-07-29T05:22:17;5.30;;;4.80;;
10461;SDS011;5278;42.656;23.374;2023-07-29T05:24:43;4.33;;;3.90;;
10461;SDS011;5278;42.656;23.374;2023-07-29T05:27:10;3.60;;;3.30;;
10461;SDS011;5278;42.656;23.374;2023-07-29T05:29:37;5.60;;;4.93;;
10461;SDS011;5278;42.656;23.374;2023-07-29T05:32:05;4.23;;;3.80;;
10461;SDS011;5278;42.656;23.374;2023-07-29T05:34:32;4.77;;;3.13;;
10461;SDS011;5278;42.656;23.374;2023-07-29T05:36:59;4.60;;;4.17;;
10461;SDS011;5278;42.656;23.374;2023-07-29T05:39:27;3.97;;;3.30;;
10461;SDS011;5278;42.656;23.374;2023-07-29T05:41:55;6.07;;;3.57;;
10461;SDS011;5278;42.656;23.374;2023-07-29T05:44:22;5.10;;;3.53;;
10461;SDS011;5278;42.656;23.374;2023-07-29T05:46:48;5.30;;;4.70;;
10461;SDS011;5278;42.656;23.374;2023-07-29T05:49:15;4.23;;;3.83;;
10461;SDS011;5278;42.656;23.374;2023-07-29T05:51:43;4.23;;;3.83;;
10461;SDS011;5278;42.656;23.374;2023-07-29T05:54:09;5.73;;;4.47;;
10461;SDS011;5278;42.656;23.374;2023-07-29T05:56:38;6.57;;;4.90;;
10461;SDS011;5278;42.656;23.374;2023-07-29T05:59:05;4.70;;;3.60;;
10461;SDS011;5278;42.656;23.374;2023-07-29T06:01:32;3.77;;;3.30;;
10461;SDS011;5278;42.656;23.374;2023-07-29T06:03:58;4.53;;;3.63;;
10461;SDS011;5278;42.656;23.374;2023-07-29T06:06:25;4.40;;;3.57;;
10461;SDS011;5278;42.656;23.374;2023-07-29T06:08:52;6.30;;;5.50;;
10461;SDS011;5278;42.656;23.374;2023-07-29T06:11:19;7.17;;;3.50;;
10461;SDS011;5278;42.656;23.374;2023-07-29T06:13:47;4.90;;;4.40;;
10461;SDS011;5278;42.656;23.374;2023-07-29T06:16:14;4.77;;;3.33;;
10461;SDS011;5278;42.656;23.374;2023-07-29T06:18:41;5.03;;;3.77;;
10461;SDS011;5278;42.656;23.374;2023-07-29T06:21:08;4.68;;;4.28;;
10461;SDS011;5278;42.656;23.374;2023-07-29T06:23:37;5.20;;;4.45;;
10461;SDS011;5278;42.656;23.374;2023-07-29T06:26:04;3.40;;;3.10;;
10461;SDS011;5278;42.656;23.374;2023-07-29T06:28:31;5.55;;;3.38;;
10461;SDS011;5278;42.656;23.374;2023-07-29T06:31:00;4.75;;;3.85;;
10461;SDS011;5278;42.656;23.374;2023-07-29T06:33:27;5.78;;;3.95;;
10461;SDS011;5278;42.656;23.374;2023-07-29T06:35:54;4.40;;;3.95;;
10461;SDS011;5278;42.656;23.374;2023-07-29T06:38:21;5.30;;;3.80;;
10461;SDS011;5278;42.656;23.374;2023-07-29T06:40:48;5.03;;;3.88;;
10461;SDS011;5278;42.656;23.374;2023-07-29T06:43:15;6.22;;;3.80;;
10461;SDS011;5278;42.656;23.374;2023-07-29T06:45:42;6.15;;;4.60;;
10461;SDS011;5278;42.656;23.374;2023-07-29T06:48:11;5.43;;;4.85;;
10461;SDS011;5278;42.656;23.374;2023-07-29T06:50:38;4.88;;;4.00;;
10461;SDS011;5278;42.656;23.374;2023-07-29T06:53:04;5.35;;;4.35;;
10461;SDS011;5278;42.656;23.374;2023-07-29T06:55:31;4.53;;;3.45;;
10461;SDS011;5278;42.656;23.374;2023-07-29T06:57:58;7.70;;;4.38;;
10461;SDS011;5278;42.656;23.374;2023-07-29T07:00:26;4.55;;;3.55;;
10461;SDS011;5278;42.656;23.374;2023-07-29T07:02:52;5.18;;;4.03;;
10461;SDS011;5278;42.656;23.374;2023-07-29T07:05:21;5.43;;;3.75;;
10461;SDS011;5278;42.656;23.374;2023-07-29T07:07:48;6.75;;;3.88;;
10461;SDS011;5278;42.656;23.374;2023-07-29T07:10:15;5.97;;;4.50;;
10461;SDS011;5278;42.656;23.374;2023-07-29T07:12:42;7.85;;;3.75;;
10461;SDS011;5278;42.656;23.374;2023-07-29T07:15:09;5.80;;;3.72;;
10461;SDS011;5278;42.656;23.374;2023-07-29T07:17:36;4.10;;;3.75;;
10461;SDS011;5278;42.656;23.374;2023-07-29T07:20:04;4.65;;;3.70;;
10461;SDS011;5278;42.656;23.374;2023-07-29T07:22:34;5.70;;;3.67;;
10461;SDS011;5278;42.656;23.374;2023-07-29T07:25:01;5.63;;;4.38;;
10461;SDS011;5278;42.656;23.374;2023-07-29T07:27:28;4.65;;;3.75;;
10461;SDS011;5278;42.656;23.374;2023-07-29T07:29:55;7.97;;;4.10;;
10461;SDS011;5278;42.656;23.374;2023-07-29T07:32:22;5.60;;;3.55;;
10461;SDS011;5278;42.656;23.374;2023-07-29T07:34:49;7.63;;;4.05;;
10461;SDS011;5278;42.656;23.374;2023-07-29T07:37:16;4.30;;;3.60;;
10461;SDS011;5278;42.656;23.374;2023-07-29T07:39:45;6.03;;;4.40;;
10461;SDS011;5278;42.656;23.374;2023-07-29T07:42:11;4.90;;;3.92;;
10461;SDS011;5278;42.656;23.374;2023-07-29T07:44:38;4.03;;;3.63;;
10461;SDS011;5278;42.656;23.374;2023-07-29T07:47:05;8.50;;;4.20;;
10461;SDS011;5278;42.656;23.374;2023-07-29T07:49:32;4.18;;;3.78;;
10461;SDS011;5278;42.656;23.374;2023-07-29T07:51:59;5.32;;;3.03;;
10461;SDS011;5278;42.656;23.374;2023-07-29T07:54:26;4.55;;;3.72;;
10461;SDS011;5278;42.656;23.374;2023-07-29T07:56:54;4.35;;;3.95;;
10461;SDS011;5278;42.656;23.374;2023-07-29T07:59:21;4.88;;;4.38;;
10461;SDS011;5278;42.656;23.374;2023-07-29T08:01:48;10.32;;;5.40;;
10461;SDS011;5278;42.656;23.374;2023-07-29T08:04:17;7.53;;;5.72;;
10461;SDS011;5278;42.656;23.374;2023-07-29T08:06:44;5.88;;;4.10;;
10461;SDS011;5278;42.656;23.374;2023-07-29T08:09:11;7.32;;;3.63;;
10461;SDS011;5278;42.656;23.374;2023-07-29T08:11:38;4.18;;;3.67;;
10461;SDS011;5278;42.656;23.374;2023-07-29T08:14:06;5.05;;;3.60;;
10461;SDS011;5278;42.656;23.374;2023-07-29T08:16:33;5.60;;;4.40;;
10461;SDS011;5278;42.656;23.374;2023-07-29T08:19:00;5.63;;;3.83;;
10461;SDS011;5278;42.656;23.374;2023-07-29T08:21:27;3.78;;;3.38;;
10461;SDS011;5278;42.656;23.374;2023-07-29T08:23:54;3.65;;;3.35;;
10461;SDS011;5278;42.656;23.374;2023-07-29T08:26:20;3.95;;;3.63;;
10461;SDS011;5278;42.656;23.374;2023-07-29T08:28:48;4.43;;;3.75;;
10461;SDS011;5278;42.656;23.374;2023-07-29T08:31:16;5.13;;;3.08;;
10461;SDS011;5278;42.656;23.374;2023-07-29T08:33:43;4.50;;;3.08;;
10461;SDS011;5278;42.656;23.374;2023-07-29T08:36:10;5.07;;;3.22;;
10461;SDS011;5278;42.656;23.374;2023-07-29T08:38:37;5.90;;;3.60;;
10461;SDS011;5278;42.656;23.374;2023-07-29T08:41:06;5.22;;;3.55;;
10461;SDS011;5278;42.656;23.374;2023-07-29T08:43:44;5.15;;;4.10;;
10461;SDS011;5278;42.656;23.374;2023-07-29T08:46:18;3.83;;;3.53;;
10461;SDS011;5278;42.656;23.374;2023-07-29T08:48:45;5.55;;;3.15;;
10461;SDS011;5278;42.656;23.374;2023-07-29T08:51:13;3.58;;;3.28;;
10461;SDS011;5278;42.656;23.374;2023-07-29T08:53:42;8.70;;;4.85;;
10461;SDS011;5278;42.656;23.374;2023-07-29T08:56:09;3.83;;;3.53;;
10461;SDS011;5278;42.656;23.374;2023-07-29T08:58:36;6.90;;;3.30;;
10461;SDS011;5278;42.656;23.374;2023-07-29T09:01:05;3.83;;;3.05;;
10461;SDS011;5278;42.656;23.374;2023-07-29T09:03:34;4.18;;;2.72;;
10461;SDS011;5278;42.656;23.374;2023-07-29T09:06:01;3.25;;;2.50;;
10461;SDS011;5278;42.656;23.374;2023-07-29T09:08:29;2.95;;;2.60;;
10461;SDS011;5278;42.656;23.374;2023-07-29T09:10:57;3.22;;;2.70;;
10461;SDS011;5278;42.656;23.374;2023-07-29T09:13:24;3.88;;;3.10;;
10461;SDS011;5278;42.656;23.374;2023-07-29T09:15:53;2.95;;;2.65;;
10461;SDS011;5278;42.656;23.374;2023-07-29T09:18:21;4.47;;;2.85;;
10461;SDS011;5278;42.656;23.374;2023-07-29T09:20:50;2.92;;;2.60;;
10461;SDS011;5278;42.656;23.374;2023-07-29T09:23:17;8.00;;;3.80;;
10461;SDS011;5278;42.656;23.374;2023-07-29T09:25:43;4.38;;;3.03;;
10461;SDS011;5278;42.656;23.374;2023-07-29T09:28:13;2.85;;;2.50;;
10461;SDS011;5278;42.656;23.374;2023-07-29T09:30:42;2.30;;;2.10;;
10461;SDS011;5278;42.656;23.374;2023-07-29T09:33:12;2.47;;;2.28;;
10461;SDS011;5278;42.656;23.374;2023-07-29T09:35:39;2.20;;;2.00;;
10461;SDS011;5278;42.656;23.374;2023-07-29T09:38:08;2.72;;;2.30;;
10461;SDS011;5278;42.656;23.374;2023-07-29T09:40:35;3.42;;;2.25;;
10461;SDS011;5278;42.656;23.374;2023-07-29T09:43:04;2.03;;;1.90;;
10461;SDS011;5278;42.656;23.374;2023-07-29T09:45:33;2.10;;;1.90;;
10461;SDS011;5278;42.656;23.374;2023-07-29T09:48:01;2.92;;;1.83;;
10461;SDS011;5278;42.656;23.374;2023-07-29T09:50:30;1.95;;;1.85;;
10461;SDS011;5278;42.656;23.374;2023-07-29T09:52:57;2.05;;;1.95;;
10461;SDS011;5278;42.656;23.374;2023-07-29T09:55:26;2.53;;;2.17;;
10461;SDS011;5278;42.656;23.374;2023-07-29T09:57:53;5.20;;;2.38;;
10461;SDS011;5278;42.656;23.374;2023-07-29T10:00:22;3.25;;;2.47;;
10461;SDS011;5278;42.656;23.374;2023-07-29T10:02:49;2.40;;;2.20;;
10461;SDS011;5278;42.656;23.374;2023-07-29T10:05:18;4.40;;;4.00;;
10461;SDS011;5278;42.656;23.374;2023-07-29T10:07:46;3.90;;;2.25;;
10461;SDS011;5278;42.656;23.374;2023-07-29T10:10:14;2.85;;;1.60;;
10461;SDS011;5278;42.656;23.374;2023-07-29T10:12:44;1.90;;;1.80;;
10461;SDS011;5278;42.656;23.374;2023-07-29T10:15:11;2.35;;;2.10;;
10461;SDS011;5278;42.656;23.374;2023-07-29T10:17:39;2.90;;;2.67;;
10461;SDS011;5278;42.656;23.374;2023-07-29T10:20:07;6.35;;;2.38;;
10461;SDS011;5278;42.656;23.374;2023-07-29T10:22:36;2.47;;;1.90;;
10461;SDS011;5278;42.656;23.374;2023-07-29T10:25:05;1.90;;;1.80;;
10461;SDS011;5278;42.656;23.374;2023-07-29T10:27:37;2.20;;;2.00;;
10461;SDS011;5278;42.656;23.374;2023-07-29T10:30:14;2.20;;;2.00;;
10461;SDS011;5278;42.656;23.374;2023-07-29T10:32:42;2.50;;;2.30;;
10461;SDS011;5278;42.656;23.374;2023-07-29T10:35:10;3.13;;;2.47;;
10461;SDS011;5278;42.656;23.374;2023-07-29T10:37:38;7.30;;;5.35;;
10461;SDS011;5278;42.656;23.374;2023-07-29T10:40:07;5.03;;;3.10;;
10461;SDS011;5278;42.656;23.374;2023-07-29T10:42:35;3.33;;;3.03;;
10461;SDS011;5278;42.656;23.374;2023-07-29T10:47:46;3.33;;;2.40;;
10461;SDS011;5278;42.656;23.374;2023-07-29T10:50:17;3.08;;;2.78;;
10461;SDS011;5278;42.656;23.374;2023-07-29T10:52:48;2.22;;;2.03;;
10461;SDS011;5278;42.656;23.374;2023-07-29T10:55:24;2.17;;;1.98;;
10461;SDS011;5278;42.656;23.374;2023-07-29T10:58:04;2.30;;;2.10;;
10461;SDS011;5278;42.656;23.374;2023-07-29T11:00:33;2.75;;;1.80;;
10461;SDS011;5278;42.656;23.374;2023-07-29T11:03:01;2.30;;;2.10;;
10461;SDS011;5278;42.656;23.374;2023-07-29T11:05:41;3.65;;;2.00;;
10461;SDS011;5278;42.656;23.374;2023-07-29T11:08:16;1.67;;;1.58;;
10461;SDS011;5278;42.656;23.374;2023-07-29T11:10:44;5.57;;;1.98;;
10461;SDS011;5278;42.656;23.374;2023-07-29T11:13:25;2.53;;;2.33;;
10461;SDS011;5278;42.656;23.374;2023-07-29T11:15:55;2.70;;;2.22;;
10461;SDS011;5278;42.656;23.374;2023-07-29T11:18:24;3.58;;;1.88;;
10461;SDS011;5278;42.656;23.374;2023-07-29T11:20:53;1.90;;;1.77;;
10461;SDS011;5278;42.656;23.374;2023-07-29T11:23:21;1.60;;;1.50;;
10461;SDS011;5278;42.656;23.374;2023-07-29T11:25:55;1.55;;;1.23;;
10461;SDS011;5278;42.656;23.374;2023-07-29T11:28:22;1.35;;;1.25;;
10461;SDS011;5278;42.656;23.374;2023-07-29T11:30:49;1.77;;;1.67;;
10461;SDS011;5278;42.656;23.374;2023-07-29T11:33:18;1.98;;;1.60;;
10461;SDS011;5278;42.656;23.374;2023-07-29T11:35:46;3.20;;;1.95;;
10461;SDS011;5278;42.656;23.374;2023-07-29T11:38:17;2.25;;;1.58;;
10461;SDS011;5278;42.656;23.374;2023-07-29T11:40:53;2.03;;;1.90;;
10461;SDS011;5278;42.656;23.374;2023-07-29T11:43:21;3.03;;;2.67;;
10461;SDS011;5278;42.656;23.374;2023-07-29T11:45:48;2.45;;;2.25;;
10461;SDS011;5278;42.656;23.374;2023-07-29T11:48:15;3.75;;;1.90;;
10461;SDS011;5278;42.656;23.374;2023-07-29T11:50:44;1.77;;;1.63;;
10461;SDS011;5278;42.656;23.374;2023-07-29T11:53:12;2.47;;;2.10;;
10461;SDS011;5278;42.656;23.374;2023-07-29T11:55:39;2.88;;;1.70;;
10461;SDS011;5278;42.656;23.374;2023-07-29T11:58:06;1.95;;;1.70;;
10461;SDS011;5278;42.656;23.374;2023-07-29T12:00:33;1.90;;;1.80;;
10461;SDS011;5278;42.656;23.374;2023-07-29T12:03:00;1.67;;;1.58;;
10461;SDS011;5278;42.656;23.374;2023-07-29T12:05:28;3.40;;;2.53;;
10461;SDS011;5278;42.656;23.374;2023-07-29T12:07:57;2.10;;;1.90;;
10461;SDS011;5278;42.656;23.374;2023-07-29T12:10:24;3.50;;;1.98;;
10461;SDS011;5278;42.656;23.374;2023-07-29T12:12:51;2.95;;;1.88;;
10461;SDS011;5278;42.656;23.374;2023-07-29T12:15:25;3.67;;;1.88;;
10461;SDS011;5278;42.656;23.374;2023-07-29T12:17:54;1.98;;;1.70;;
10461;SDS011;5278;42.656;23.374;2023-07-29T12:20:24;1.70;;;1.50;;
10461;SDS011;5278;42.656;23.374;2023-07-29T12:22:53;2.33;;;1.40;;
10461;SDS011;5278;42.656;23.374;2023-07-29T12:25:23;1.77;;;1.60;;
10461;SDS011;5278;42.656;23.374;2023-07-29T12:27:50;5.63;;;2.30;;
10461;SDS011;5278;42.656;23.374;2023-07-29T12:30:19;1.95;;;1.65;;
10461;SDS011;5278;42.656;23.374;2023-07-29T12:32:47;9.48;;;7.82;;
10461;SDS011;5278;42.656;23.374;2023-07-29T12:35:14;6.18;;;4.80;;
10461;SDS011;5278;42.656;23.374;2023-07-29T12:37:41;4.50;;;3.05;;
10461;SDS011;5278;42.656;23.374;2023-07-29T12:40:19;2.47;;;2.28;;
10461;SDS011;5278;42.656;23.374;2023-07-29T12:42:50;2.60;;;2.40;;
10461;SDS011;5278;42.656;23.374;2023-07-29T12:45:17;2.30;;;2.10;;
10461;SDS011;5278;42.656;23.374;2023-07-29T12:47:47;4.72;;;3.75;;
10461;SDS011;5278;42.656;23.374;2023-07-29T12:50:14;1.63;;;1.52;;
10461;SDS011;5278;42.656;23.374;2023-07-29T12:52:42;4.50;;;2.33;;
10461;SDS011;5278;42.656;23.374;2023-07-29T12:55:09;3.47;;;2.88;;
10461;SDS011;5278;42.656;23.374;2023-07-29T12:57:38;3.47;;;2.92;;
10461;SDS011;5278;42.656;23.374;2023-07-29T13:00:08;4.85;;;2.97;;
10461;SDS011;5278;42.656;23.374;2023-07-29T13:02:36;3.08;;;2.42;;
10461;SDS011;5278;42.656;23.374;2023-07-29T13:05:03;2.13;;;1.92;;
10461;SDS011;5278;42.656;23.374;2023-07-29T13:07:31;4.05;;;2.17;;
10461;SDS011;5278;42.656;23.374;2023-07-29T13:09:58;2.17;;;1.98;;
10461;SDS011;5278;42.656;23.374;2023-07-29T13:12:26;2.85;;;2.30;;
10461;SDS011;5278;42.656;23.374;2023-07-29T13:14:53;2.08;;;1.88;;
10461;SDS011;5278;42.656;23.374;2023-07-29T13:17:22;1.95;;;1.85;;
10461;SDS011;5278;42.656;23.374;2023-07-29T13:19:49;3.42;;;2.75;;
10461;SDS011;5278;42.656;23.374;2023-07-29T13:22:16;2.95;;;2.30;;
10461;SDS011;5278;42.656;23.374;2023-07-29T13:24:43;2.00;;;1.90;;
10461;SDS011;5278;42.656;23.374;2023-07-29T13:27:10;2.20;;;2.00;;
10461;SDS011;5278;42.656;23.374;2023-07-29T13:29:37;2.30;;;2.10;;
10461;SDS011;5278;42.656;23.374;2023-07-29T13:32:04;2.25;;;2.05;;
10461;SDS011;5278;42.656;23.374;2023-07-29T13:34:33;2.42;;;2.22;;
10461;SDS011;5278;42.656;23.374;2023-07-29T13:37:00;2.33;;;2.13;;
10461;SDS011;5278;42.656;23.374;2023-07-29T13:39:28;2.28;;;1.92;;
10461;SDS011;5278;42.656;23.374;2023-07-29T13:41:55;2.75;;;2.33;;
10461;SDS011;5278;42.656;23.374;2023-07-29T13:44:22;3.10;;;2.05;;
10461;SDS011;5278;42.656;23.374;2023-07-29T13:46:49;2.50;;;2.30;;
10461;SDS011;5278;42.656;23.374;2023-07-29T13:49:16;2.42;;;2.10;;
10461;SDS011;5278;42.656;23.374;2023-07-29T13:51:45;1.95;;;1.73;;
10461;SDS011;5278;42.656;23.374;2023-07-29T13:54:11;2.40;;;1.92;;
10461;SDS011;5278;42.656;23.374;2023-07-29T13:56:39;3.75;;;2.28;;
10461;SDS011;5278;42.656;23.374;2023-07-29T13:59:05;3.45;;;2.17;;
10461;SDS011;5278;42.656;23.374;2023-07-29T14:01:33;2.65;;;2.25;;
10461;SDS011;5278;42.656;23.374;2023-07-29T14:04:00;2.05;;;1.95;;
10461;SDS011;5278;42.656;23.374;2023-07-29T14:06:27;5.68;;;2.15;;
10461;SDS011;5278;42.656;23.374;2023-07-29T14:08:55;5.15;;;2.15;;
10461;SDS011;5278;42.656;23.374;2023-07-29T14:11:22;3.95;;;2.60;;
10461;SDS011;5278;42.656;23.374;2023-07-29T14:13:49;3.00;;;2.10;;
10461;SDS011;5278;42.656;23.374;2023-07-29T14:16:16;3.72;;;2.08;;
10461;SDS011;5278;42.656;23.374;2023-07-29T14:18:43;3.08;;;2.17;;
10461;SDS011;5278;42.656;23.374;2023-07-29T14:21:10;2.17;;;1.98;;
10461;SDS011;5278;42.656;23.374;2023-07-29T14:23:39;2.17;;;2.00;;
10461;SDS011;5278;42.656;23.374;2023-07-29T14:26:07;2.30;;;2.10;;
10461;SDS011;5278;42.656;23.374;2023-07-29T14:28:36;1.98;;;1.80;;
10461;SDS011;5278;42.656;23.374;2023-07-29T14:31:02;1.92;;;1.83;;
10461;SDS011;5278;42.656;23.374;2023-07-29T14:33:29;3.05;;;1.92;;
10461;SDS011;5278;42.656;23.374;2023-07-29T14:35:57;2.35;;;2.15;;
10461;SDS011;5278;42.656;23.374;2023-07-29T14:38:23;2.20;;;2.00;;
10461;SDS011;5278;42.656;23.374;2023-07-29T14:40:51;3.55;;;2.50;;
10461;SDS011;5278;42.656;23.374;2023-07-29T14:43:21;2.35;;;2.15;;
10461;SDS011;5278;42.656;23.374;2023-07-29T14:45:48;6.45;;;4.07;;
10461;SDS011;5278;42.656;23.374;2023-07-29T14:48:15;3.28;;;2.05;;
10461;SDS011;5278;42.656;23.374;2023-07-29T14:50:42;4.45;;;2.58;;
10461;SDS011;5278;42.656;23.374;2023-07-29T14:53:10;2.53;;;2.33;;
10461;SDS011;5278;42.656;23.374;2023-07-29T14:55:37;2.63;;;2.43;;